sensor_id;sensor_type;location;lat;lon;timestamp;pressure;altitude;pressure_sealevel;temperature;humidity
57628;BME280;43451;49.060;10.616;2023-06-22T00:02:47;96857.59;;;17.92;100.00
57628;BME280;43451;49.060;10.616;2023-06-22T00:08:42;96854.97;;;17.88;100.00
57628;BME280;43451;49.060;10.616;2023-06-22T00:11:21;96848.59;;;17.91;100.00
57628;BME280;43451;49.060;10.616;2023-06-22T00:14:12;96843.19;;;17.88;100.00
57628;BME280;43451;49.060;10.616;2023-06-22T00:16:54;96849.84;;;17.74;100.00
57628;BME280;43451;49.060;10.616;2023-06-22T00:19:36;96854.69;;;17.70;100.00
57628;BME280;43451;49.060;10.616;2023-06-22T00:22:17;96855.72;;;17.59;100.00
57628;BME280;43451;49.060;10.616;2023-06-22T00:27:46;96860.66;;;17.52;100.00
57628;BME280;43451;49.060;10.616;2023-06-22T00:30:11;96870.28;;;17.73;100.00
57628;BME280;43451;49.060;10.616;2023-06-22T00:32:37;96870.91;;;17.80;100.00
57628;BME280;43451;49.060;10.616;2023-06-22T00:35:12;96873.69;;;17.64;100.00
57628;BME280;43451;49.060;10.616;2023-06-22T00:37:50;96873.09;;;17.56;100.00
57628;BME280;43451;49.060;10.616;2023-06-22T00:40:21;96875.41;;;17.58;100.00
57628;BME280;43451;49.060;10.616;2023-06-22T00:42:54;96877.03;;;17.55;100.00
57628;BME280;43451;49.060;10.616;2023-06-22T00:45:27;96872.94;;;17.47;100.00
57628;BME280;43451;49.060;10.616;2023-06-22T00:47:53;96849.78;;;17.48;100.00
57628;BME280;43451;49.060;10.616;2023-06-22T00:50:30;96841.94;;;17.47;100.00
57628;BME280;43451;49.060;10.616;2023-06-22T00:53:05;96852.16;;;17.46;100.00
57628;BME280;43451;49.060;10.616;2023-06-22T00:56:05;96841.94;;;17.47;100.00
57628;BME280;43451;49.060;10.616;2023-06-22T00:58:31;96837.09;;;17.38;100.00
57628;BME280;43451;49.060;10.616;2023-06-22T01:04:08;96820.19;;;17.39;100.00
57628;BME280;43451;49.060;10.616;2023-06-22T01:06:58;96818.06;;;17.73;100.00
57628;BME280;43451;49.060;10.616;2023-06-22T01:12:44;96812.47;;;17.63;100.00
57628;BME280;43451;49.060;10.616;2023-06-22T01:15:34;96815.84;;;17.55;100.00
57628;BME280;43451;49.060;10.616;2023-06-22T01:21:05;96816.13;;;17.44;100.00
57628;BME280;43451;49.060;10.616;2023-06-22T01:23:58;96819.41;;;17.39;100.00
57628;BME280;43451;49.060;10.616;2023-06-22T01:26:42;96824.66;;;17.33;100.00
57628;BME280;43451;49.060;10.616;2023-06-22T01:29:11;96830.59;;;17.32;100.00
57628;BME280;43451;49.060;10.616;2023-06-22T01:31:40;96825.09;;;17.32;100.00
57628;BME280;43451;49.060;10.616;2023-06-22T01:34:08;96822.88;;;17.27;100.00
57628;BME280;43451;49.060;10.616;2023-06-22T01:36:34;96818.06;;;17.31;100.00
57628;BME280;43451;49.060;10.616;2023-06-22T01:39:02;96821.56;;;17.31;100.00
57628;BME280;43451;49.060;10.616;2023-06-22T01:41:30;96829.81;;;17.31;100.00
57628;BME280;43451;49.060;10.616;2023-06-22T01:43:56;96822.31;;;17.19;100.00
57628;BME280;43451;49.060;10.616;2023-06-22T01:46:22;96832.59;;;17.15;100.00
57628;BME280;43451;49.060;10.616;2023-06-22T01:48:49;96838.50;;;17.30;100.00
57628;BME280;43451;49.060;10.616;2023-06-22T01:51:16;96829.84;;;17.44;100.00
57628;BME280;43451;49.060;10.616;2023-06-22T01:53:42;96847.75;;;17.36;100.00
57628;BME280;43451;49.060;10.616;2023-06-22T01:56:08;96857.19;;;17.35;100.00
57628;BME280;43451;49.060;10.616;2023-06-22T01:58:37;96853.34;;;17.32;100.00
57628;BME280;43451;49.060;10.616;2023-06-22T02:01:11;96857.28;;;17.60;100.00
57628;BME280;43451;49.060;10.616;2023-06-22T02:03:41;96863.31;;;17.55;100.00
57628;BME280;43451;49.060;10.616;2023-06-22T02:06:25;96869.16;;;17.41;100.00
57628;BME280;43451;49.060;10.616;2023-06-22T02:08:59;96867.31;;;17.38;100.00
57628;BME280;43451;49.060;10.616;2023-06-22T02:11:27;96851.97;;;17.24;100.00
57628;BME280;43451;49.060;10.616;2023-06-22T02:13:55;96857.72;;;17.30;100.00
57628;BME280;43451;49.060;10.616;2023-06-22T02:16:21;96858.56;;;17.27;100.00
57628;BME280;43451;49.060;10.616;2023-06-22T02:18:48;96865.91;;;17.46;100.00
57628;BME280;43451;49.060;10.616;2023-06-22T02:21:16;96872.94;;;17.47;100.00
57628;BME280;43451;49.060;10.616;2023-06-22T02:23:42;96868.19;;;17.18;100.00
57628;BME280;43451;49.060;10.616;2023-06-22T02:26:08;96863.13;;;17.17;100.00
57628;BME280;43451;49.060;10.616;2023-06-22T02:28:34;96874.59;;;17.28;100.00
57628;BME280;43451;49.060;10.616;2023-06-22T02:30:59;96881.75;;;17.26;100.00
57628;BME280;43451;49.060;10.616;2023-06-22T02:33:25;96897.19;;;17.36;100.00
57628;BME280;43451;49.060;10.616;2023-06-22T02:35:51;96902.69;;;17.20;100.00
57628;BME280;43451;49.060;10.616;2023-06-22T02:38:17;96907.66;;;17.08;100.00
57628;BME280;43451;49.060;10.616;2023-06-22T02:40:43;96915.91;;;17.08;100.00
57628;BME280;43451;49.060;10.616;2023-06-22T02:43:08;96905.53;;;17.16;100.00
57628;BME280;43451;49.060;10.616;2023-06-22T02:45:34;96902.16;;;17.25;100.00
57628;BME280;43451;49.060;10.616;2023-06-22T02:47:59;96905.19;;;17.14;100.00
57628;BME280;43451;49.060;10.616;2023-06-22T02:50:25;96896.75;;;17.21;100.00
57628;BME280;43451;49.060;10.616;2023-06-22T02:52:50;96901.41;;;17.24;100.00
57628;BME280;43451;49.060;10.616;2023-06-22T02:55:16;96902.63;;;17.07;100.00
57628;BME280;43451;49.060;10.616;2023-06-22T02:57:41;96902.34;;;17.17;100.00
57628;BME280;43451;49.060;10.616;2023-06-22T03:00:09;96904.59;;;17.06;100.00
57628;BME280;43451;49.060;10.616;2023-06-22T03:02:44;96907.50;;;16.99;100.00
57628;BME280;43451;49.060;10.616;2023-06-22T03:05:10;96895.84;;;16.95;100.00
57628;BME280;43451;49.060;10.616;2023-06-22T03:07:41;96909.22;;;16.93;100.00
57628;BME280;43451;49.060;10.616;2023-06-22T03:10:11;96889.50;;;16.98;100.00
57628;BME280;43451;49.060;10.616;2023-06-22T03:12:38;96881.94;;;17.02;100.00
57628;BME280;43451;49.060;10.616;2023-06-22T03:15:08;96891.03;;;16.99;100.00
57628;BME280;43451;49.060;10.616;2023-06-22T03:17:34;96890.34;;;17.11;100.00
57628;BME280;43451;49.060;10.616;2023-06-22T03:20:04;96888.88;;;17.23;100.00
57628;BME280;43451;49.060;10.616;2023-06-22T03:22:35;96878.31;;;17.22;100.00
57628;BME280;43451;49.060;10.616;2023-06-22T03:25:01;96873.44;;;17.13;100.00
57628;BME280;43451;49.060;10.616;2023-06-22T03:27:27;96876.25;;;17.09;100.00
57628;BME280;43451;49.060;10.616;2023-06-22T03:29:52;96879.25;;;17.15;100.00
57628;BME280;43451;49.060;10.616;2023-06-22T03:32:18;96870.53;;;17.04;100.00
57628;BME280;43451;49.060;10.616;2023-06-22T03:34:43;96876.28;;;16.93;100.00
57628;BME280;43451;49.060;10.616;2023-06-22T03:37:13;96873.13;;;16.94;100.00
57628;BME280;43451;49.060;10.616;2023-06-22T03:39:38;96876.13;;;17.00;100.00
57628;BME280;43451;49.060;10.616;2023-06-22T03:42:04;96875.94;;;17.07;100.00
57628;BME280;43451;49.060;10.616;2023-06-22T03:44:30;96878.88;;;17.00;100.00
57628;BME280;43451;49.060;10.616;2023-06-22T03:46:56;96876.44;;;17.02;100.00
57628;BME280;43451;49.060;10.616;2023-06-22T03:49:21;96873.97;;;17.08;100.00
57628;BME280;43451;49.060;10.616;2023-06-22T03:51:48;96878.78;;;17.04;100.00
57628;BME280;43451;49.060;10.616;2023-06-22T03:54:13;96879.53;;;17.04;100.00
57628;BME280;43451;49.060;10.616;2023-06-22T03:56:39;96883.50;;;17.03;100.00
57628;BME280;43451;49.060;10.616;2023-06-22T03:59:04;96867.69;;;17.07;100.00
57628;BME280;43451;49.060;10.616;2023-06-22T04:01:30;96865.81;;;17.04;100.00
57628;BME280;43451;49.060;10.616;2023-06-22T04:03:55;96864.69;;;17.02;100.00
57628;BME280;43451;49.060;10.616;2023-06-22T04:06:21;96857.78;;;16.97;100.00
57628;BME280;43451;49.060;10.616;2023-06-22T04:08:47;96860.50;;;16.97;100.00
57628;BME280;43451;49.060;10.616;2023-06-22T04:11:16;96849.69;;;16.90;100.00
57628;BME280;43451;49.060;10.616;2023-06-22T04:13:41;96855.88;;;16.94;100.00
57628;BME280;43451;49.060;10.616;2023-06-22T04:16:07;96848.31;;;16.98;100.00
57628;BME280;43451;49.060;10.616;2023-06-22T04:18:32;96843.19;;;17.00;100.00
57628;BME280;43451;49.060;10.616;2023-06-22T04:20:58;96849.34;;;17.04;100.00
57628;BME280;43451;49.060;10.616;2023-06-22T04:23:23;96843.41;;;17.06;100.00
57628;BME280;43451;49.060;10.616;2023-06-22T04:25:49;96844.63;;;17.05;100.00
57628;BME280;43451;49.060;10.616;2023-06-22T04:28:15;96835.19;;;17.06;100.00
57628;BME280;43451;49.060;10.616;2023-06-22T04:30:41;96840.56;;;17.09;100.00
57628;BME280;43451;49.060;10.616;2023-06-22T04:33:14;96841.84;;;17.21;100.00
57628;BME280;43451;49.060;10.616;2023-06-22T04:35:40;96846.66;;;17.17;100.00
57628;BME280;43451;49.060;10.616;2023-06-22T04:38:07;96833.72;;;17.17;100.00
57628;BME280;43451;49.060;10.616;2023-06-22T04:40:33;96837.22;;;17.18;100.00
57628;BME280;43451;49.060;10.616;2023-06-22T04:42:58;96842.44;;;17.29;100.00
57628;BME280;43451;49.060;10.616;2023-06-22T04:45:28;96840.03;;;17.31;100.00
57628;BME280;43451;49.060;10.616;2023-06-22T04:47:54;96832.03;;;17.36;100.00
57628;BME280;43451;49.060;10.616;2023-06-22T04:50:20;96841.19;;;17.46;100.00
57628;BME280;43451;49.060;10.616;2023-06-22T04:52:47;96838.59;;;17.55;100.00
57628;BME280;43451;49.060;10.616;2023-06-22T04:55:14;96835.97;;;17.64;100.00
57628;BME280;43451;49.060;10.616;2023-06-22T04:57:44;96830.63;;;17.74;100.00
57628;BME280;43451;49.060;10.616;2023-06-22T05:00:18;96832.09;;;17.91;100.00
57628;BME280;43451;49.060;10.616;2023-06-22T05:02:45;96835.44;;;17.99;100.00
57628;BME280;43451;49.060;10.616;2023-06-22T05:05:12;96846.56;;;18.33;100.00
57628;BME280;43451;49.060;10.616;2023-06-22T05:07:45;96843.38;;;18.35;100.00
57628;BME280;43451;49.060;10.616;2023-06-22T05:10:13;96830.59;;;18.41;100.00
57628;BME280;43451;49.060;10.616;2023-06-22T05:12:40;96821.69;;;18.63;100.00
57628;BME280;43451;49.060;10.616;2023-06-22T05:15:09;96827.19;;;18.75;100.00
57628;BME280;43451;49.060;10.616;2023-06-22T05:17:36;96814.53;;;18.78;100.00
57628;BME280;43451;49.060;10.616;2023-06-22T05:20:02;96812.34;;;18.73;100.00
57628;BME280;43451;49.060;10.616;2023-06-22T05:22:31;96806.28;;;18.78;100.00
57628;BME280;43451;49.060;10.616;2023-06-22T05:24:57;96798.63;;;18.95;100.00
57628;BME280;43451;49.060;10.616;2023-06-22T05:27:22;96799.06;;;18.93;100.00
57628;BME280;43451;49.060;10.616;2023-06-22T05:29:48;96802.75;;;19.12;100.00
57628;BME280;43451;49.060;10.616;2023-06-22T05:32:13;96796.28;;;19.28;100.00
57628;BME280;43451;49.060;10.616;2023-06-22T05:34:39;96785.88;;;19.45;100.00
57628;BME280;43451;49.060;10.616;2023-06-22T05:37:04;96798.03;;;19.79;100.00
57628;BME280;43451;49.060;10.616;2023-06-22T05:39:30;96797.47;;;20.15;100.00
57628;BME280;43451;49.060;10.616;2023-06-22T05:41:56;96791.00;;;20.40;100.00
57628;BME280;43451;49.060;10.616;2023-06-22T05:44:21;96785.69;;;20.64;100.00
57628;BME280;43451;49.060;10.616;2023-06-22T05:46:47;96785.16;;;20.97;100.00
57628;BME280;43451;49.060;10.616;2023-06-22T05:49:13;96779.94;;;21.26;100.00
57628;BME280;43451;49.060;10.616;2023-06-22T05:51:40;96792.69;;;21.42;100.00
57628;BME280;43451;49.060;10.616;2023-06-22T05:54:06;96787.47;;;21.53;100.00
57628;BME280;43451;49.060;10.616;2023-06-22T05:56:33;96785.00;;;21.65;100.00
57628;BME280;43451;49.060;10.616;2023-06-22T05:58:58;96779.88;;;21.72;100.00
57628;BME280;43451;49.060;10.616;2023-06-22T06:01:24;96780.00;;;21.96;100.00
57628;BME280;43451;49.060;10.616;2023-06-22T06:03:51;96777.41;;;21.93;100.00
57628;BME280;43451;49.060;10.616;2023-06-22T06:06:18;96784.19;;;21.92;100.00
57628;BME280;43451;49.060;10.616;2023-06-22T06:08:45;96772.75;;;22.08;100.00
57628;BME280;43451;49.060;10.616;2023-06-22T06:11:10;96769.63;;;22.24;100.00
57628;BME280;43451;49.060;10.616;2023-06-22T06:13:35;96766.16;;;22.39;100.00
57628;BME280;43451;49.060;10.616;2023-06-22T06:16:01;96753.47;;;22.56;100.00
57628;BME280;43451;49.060;10.616;2023-06-22T06:18:27;96748.09;;;22.53;100.00
57628;BME280;43451;49.060;10.616;2023-06-22T06:20:52;96747.34;;;22.52;100.00
57628;BME280;43451;49.060;10.616;2023-06-22T06:23:18;96751.00;;;22.58;100.00
57628;BME280;43451;49.060;10.616;2023-06-22T06:25:43;96760.53;;;22.81;100.00
57628;BME280;43451;49.060;10.616;2023-06-22T06:28:09;96754.41;;;23.01;100.00
57628;BME280;43451;49.060;10.616;2023-06-22T06:30:34;96751.28;;;23.08;100.00
57628;BME280;43451;49.060;10.616;2023-06-22T06:33:02;96751.19;;;23.17;100.00
57628;BME280;43451;49.060;10.616;2023-06-22T06:35:30;96748.56;;;22.99;100.00
57628;BME280;43451;49.060;10.616;2023-06-22T06:37:55;96753.22;;;22.93;100.00
57628;BME280;43451;49.060;10.616;2023-06-22T06:40:21;96746.63;;;22.90;100.00
57628;BME280;43451;49.060;10.616;2023-06-22T06:42:47;96752.41;;;22.78;100.00
57628;BME280;43451;49.060;10.616;2023-06-22T06:45:21;96744.22;;;22.59;100.00
57628;BME280;43451;49.060;10.616;2023-06-22T06:47:51;96744.63;;;22.43;100.00
57628;BME280;43451;49.060;10.616;2023-06-22T06:50:18;96740.03;;;22.40;100.00
57628;BME280;43451;49.060;10.616;2023-06-22T06:52:44;96739.41;;;22.36;100.00
57628;BME280;43451;49.060;10.616;2023-06-22T06:55:10;96741.53;;;22.41;100.00
57628;BME280;43451;49.060;10.616;2023-06-22T06:57:38;96739.41;;;22.36;100.00
57628;BME280;43451;49.060;10.616;2023-06-22T07:00:08;96740.34;;;22.33;100.00
57628;BME280;43451;49.060;10.616;2023-06-22T07:02:39;96737.59;;;22.33;100.00
57628;BME280;43451;49.060;10.616;2023-06-22T07:05:05;96742.19;;;22.36;100.00
57628;BME280;43451;49.060;10.616;2023-06-22T07:07:31;96738.03;;;22.40;100.00
57628;BME280;43451;49.060;10.616;2023-06-22T07:09:57;96732.31;;;22.44;100.00
57628;BME280;43451;49.060;10.616;2023-06-22T07:12:23;96735.59;;;22.57;100.00
57628;BME280;43451;49.060;10.616;2023-06-22T07:14:48;96731.63;;;22.58;100.00
57628;BME280;43451;49.060;10.616;2023-06-22T07:17:14;96724.47;;;22.66;100.00
57628;BME280;43451;49.060;10.616;2023-06-22T07:19:39;96716.47;;;22.68;100.00
57628;BME280;43451;49.060;10.616;2023-06-22T07:22:07;96715.53;;;22.71;100.00
57628;BME280;43451;49.060;10.616;2023-06-22T07:24:32;96705.59;;;22.80;100.00
57628;BME280;43451;49.060;10.616;2023-06-22T07:26:58;96712.28;;;22.97;100.00
57628;BME280;43451;49.060;10.616;2023-06-22T07:29:25;96713.53;;;23.11;100.00
57628;BME280;43451;49.060;10.616;2023-06-22T07:31:52;96701.91;;;23.22;100.00
57628;BME280;43451;49.060;10.616;2023-06-22T07:34:18;96711.66;;;23.32;100.00
57628;BME280;43451;49.060;10.616;2023-06-22T07:36:44;96707.06;;;23.29;100.00
57628;BME280;43451;49.060;10.616;2023-06-22T07:39:10;96704.38;;;23.49;99.47
57628;BME280;43451;49.060;10.616;2023-06-22T07:41:38;96704.69;;;23.51;100.00
57628;BME280;43451;49.060;10.616;2023-06-22T07:44:04;96704.00;;;23.56;99.51
57628;BME280;43451;49.060;10.616;2023-06-22T07:46:31;96706.53;;;23.69;96.65
57628;BME280;43451;49.060;10.616;2023-06-22T07:48:57;96710.44;;;23.77;96.61
57628;BME280;43451;49.060;10.616;2023-06-22T07:51:23;96708.91;;;23.76;99.07
57628;BME280;43451;49.060;10.616;2023-06-22T07:56:18;96712.22;;;23.95;95.12
57628;BME280;43451;49.060;10.616;2023-06-22T07:58:46;96705.31;;;24.05;93.37
57628;BME280;43451;49.060;10.616;2023-06-22T08:01:13;96712.69;;;24.08;92.20
57628;BME280;43451;49.060;10.616;2023-06-22T08:03:39;96714.84;;;24.19;93.23
57628;BME280;43451;49.060;10.616;2023-06-22T08:06:06;96720.91;;;24.38;91.75
57628;BME280;43451;49.060;10.616;2023-06-22T08:08:37;96715.28;;;24.47;89.56
57628;BME280;43451;49.060;10.616;2023-06-22T08:11:02;96715.69;;;24.61;91.25
57628;BME280;43451;49.060;10.616;2023-06-22T08:13:28;96716.47;;;24.61;90.95
57628;BME280;43451;49.060;10.616;2023-06-22T08:15:54;96711.25;;;24.89;86.97
57628;BME280;43451;49.060;10.616;2023-06-22T08:18:20;96707.69;;;24.89;85.30
57628;BME280;43451;49.060;10.616;2023-06-22T08:20:45;96688.16;;;25.04;85.36
57628;BME280;43451;49.060;10.616;2023-06-22T08:23:11;96694.81;;;25.12;88.28
57628;BME280;43451;49.060;10.616;2023-06-22T08:25:37;96693.69;;;25.24;84.53
57628;BME280;43451;49.060;10.616;2023-06-22T08:28:03;96698.63;;;25.35;81.02
57628;BME280;43451;49.060;10.616;2023-06-22T08:30:29;96702.16;;;25.35;83.99
57628;BME280;43451;49.060;10.616;2023-06-22T08:32:55;96692.06;;;25.38;81.53
57628;BME280;43451;49.060;10.616;2023-06-22T08:35:22;96699.13;;;25.65;78.76
57628;BME280;43451;49.060;10.616;2023-06-22T08:37:48;96693.56;;;25.65;78.11
57628;BME280;43451;49.060;10.616;2023-06-22T08:40:18;96687.81;;;25.74;80.43
57628;BME280;43451;49.060;10.616;2023-06-22T08:42:48;96692.69;;;25.79;74.51
57628;BME280;43451;49.060;10.616;2023-06-22T08:45:14;96696.13;;;25.95;70.86
57628;BME280;43451;49.060;10.616;2023-06-22T08:47:41;96703.50;;;26.03;73.63
57628;BME280;43451;49.060;10.616;2023-06-22T08:50:11;96698.03;;;26.14;74.67
57628;BME280;43451;49.060;10.616;2023-06-22T08:52:38;96696.06;;;26.26;74.33
57628;BME280;43451;49.060;10.616;2023-06-22T08:55:06;96698.34;;;26.28;68.99
57628;BME280;43451;49.060;10.616;2023-06-22T08:57:32;96682.91;;;26.32;69.62
57628;BME280;43451;49.060;10.616;2023-06-22T08:59:58;96682.75;;;26.47;65.71
57628;BME280;43451;49.060;10.616;2023-06-22T09:02:27;96665.88;;;26.62;68.12
57628;BME280;43451;49.060;10.616;2023-06-22T09:04:59;96663.59;;;26.66;68.20
57628;BME280;43451;49.060;10.616;2023-06-22T09:07:24;96662.38;;;26.78;67.36
57628;BME280;43451;49.060;10.616;2023-06-22T09:09:51;96648.94;;;26.82;64.70
57628;BME280;43451;49.060;10.616;2023-06-22T09:12:17;96657.88;;;26.98;63.70
57628;BME280;43451;49.060;10.616;2023-06-22T09:14:45;96647.75;;;27.06;61.90
57628;BME280;43451;49.060;10.616;2023-06-22T09:17:12;96646.75;;;27.09;62.53
57628;BME280;43451;49.060;10.616;2023-06-22T09:19:38;96641.19;;;27.09;59.05
57628;BME280;43451;49.060;10.616;2023-06-22T09:22:03;96629.03;;;27.23;61.84
57628;BME280;43451;49.060;10.616;2023-06-22T09:24:31;96630.81;;;27.32;62.10
57628;BME280;43451;49.060;10.616;2023-06-22T09:26:56;96621.16;;;27.27;57.84
57628;BME280;43451;49.060;10.616;2023-06-22T09:29:22;96617.91;;;27.35;60.28
57628;BME280;43451;49.060;10.616;2023-06-22T09:31:47;96614.84;;;27.33;60.53
57628;BME280;43451;49.060;10.616;2023-06-22T09:34:13;96619.41;;;27.41;59.27
57628;BME280;43451;49.060;10.616;2023-06-22T09:36:38;96619.44;;;27.47;59.96
57628;BME280;43451;49.060;10.616;2023-06-22T09:39:05;96614.56;;;27.59;59.28
57628;BME280;43451;49.060;10.616;2023-06-22T09:41:32;96609.00;;;27.70;58.33
57628;BME280;43451;49.060;10.616;2023-06-22T09:43:57;96607.22;;;27.84;58.24
57628;BME280;43451;49.060;10.616;2023-06-22T09:46:23;96603.59;;;28.11;57.96
57628;BME280;43451;49.060;10.616;2023-06-22T09:48:50;96604.63;;;28.08;56.76
57628;BME280;43451;49.060;10.616;2023-06-22T09:51:16;96596.47;;;28.21;56.13
57628;BME280;43451;49.060;10.616;2023-06-22T09:53:42;96594.41;;;28.28;55.33
57628;BME280;43451;49.060;10.616;2023-06-22T09:56:07;96603.78;;;28.41;51.37
57628;BME280;43451;49.060;10.616;2023-06-22T09:58:36;96599.16;;;28.55;50.25
57628;BME280;43451;49.060;10.616;2023-06-22T10:01:02;96608.56;;;28.52;51.77
57628;BME280;43451;49.060;10.616;2023-06-22T10:03:27;96606.81;;;28.49;53.37
57628;BME280;43451;49.060;10.616;2023-06-22T10:05:53;96609.78;;;28.62;52.22
57628;BME280;43451;49.060;10.616;2023-06-22T10:08:18;96608.72;;;28.71;52.47
57628;BME280;43451;49.060;10.616;2023-06-22T10:10:44;96619.38;;;28.78;50.77
57628;BME280;43451;49.060;10.616;2023-06-22T10:13:10;96634.53;;;28.94;50.57
57628;BME280;43451;49.060;10.616;2023-06-22T10:15:36;96634.78;;;28.96;49.39
57628;BME280;43451;49.060;10.616;2023-06-22T10:18:02;96634.25;;;28.98;49.77
57628;BME280;43451;49.060;10.616;2023-06-22T10:20:27;96638.06;;;29.06;49.18
57628;BME280;43451;49.060;10.616;2023-06-22T10:22:53;96641.06;;;29.13;48.56
57628;BME280;43451;49.060;10.616;2023-06-22T10:25:22;96641.78;;;29.20;49.11
57628;BME280;43451;49.060;10.616;2023-06-22T10:27:48;96642.75;;;29.28;49.18
57628;BME280;43451;49.060;10.616;2023-06-22T10:30:13;96629.72;;;29.30;46.84
57628;BME280;43451;49.060;10.616;2023-06-22T10:32:41;96635.25;;;29.42;47.85
57628;BME280;43451;49.060;10.616;2023-06-22T10:35:08;96632.88;;;29.51;47.93
57628;BME280;43451;49.060;10.616;2023-06-22T10:37:33;96622.47;;;29.46;47.30
57628;BME280;43451;49.060;10.616;2023-06-22T10:39:59;96624.44;;;29.63;45.92
57628;BME280;43451;49.060;10.616;2023-06-22T10:42:24;96622.81;;;29.73;47.20
57628;BME280;43451;49.060;10.616;2023-06-22T10:44:50;96617.03;;;29.90;48.42
57628;BME280;43451;49.060;10.616;2023-06-22T10:47:16;96614.81;;;29.82;46.69
57628;BME280;43451;49.060;10.616;2023-06-22T10:49:41;96613.72;;;29.91;46.54
57628;BME280;43451;49.060;10.616;2023-06-22T10:52:08;96610.09;;;29.96;46.90
57628;BME280;43451;49.060;10.616;2023-06-22T10:54:35;96612.31;;;30.03;46.96
57628;BME280;43451;49.060;10.616;2023-06-22T10:57:01;96602.19;;;30.00;45.94
57628;BME280;43451;49.060;10.616;2023-06-22T10:59:26;96601.09;;;30.03;47.69
57628;BME280;43451;49.060;10.616;2023-06-22T11:01:54;96602.09;;;30.06;46.77
57628;BME280;43451;49.060;10.616;2023-06-22T11:04:20;96603.69;;;30.26;45.67
57628;BME280;43451;49.060;10.616;2023-06-22T11:06:45;96608.81;;;30.22;46.38
57628;BME280;43451;49.060;10.616;2023-06-22T11:09:11;96604.78;;;30.17;47.55
57628;BME280;43451;49.060;10.616;2023-06-22T11:11:37;96597.19;;;30.12;48.30
57628;BME280;43451;49.060;10.616;2023-06-22T11:14:02;96589.78;;;30.39;47.28
57628;BME280;43451;49.060;10.616;2023-06-22T11:16:28;96595.91;;;30.38;46.87
57628;BME280;43451;49.060;10.616;2023-06-22T11:18:53;96584.94;;;30.40;47.46
57628;BME280;43451;49.060;10.616;2023-06-22T11:21:19;96585.97;;;30.37;45.27
57628;BME280;43451;49.060;10.616;2023-06-22T11:23:45;96577.25;;;30.40;46.75
57628;BME280;43451;49.060;10.616;2023-06-22T11:26:11;96575.06;;;30.33;46.13
57628;BME280;43451;49.060;10.616;2023-06-22T11:28:36;96571.88;;;30.23;48.74
57628;BME280;43451;49.060;10.616;2023-06-22T11:31:02;96562.94;;;30.44;48.44
57628;BME280;43451;49.060;10.616;2023-06-22T11:33:27;96557.03;;;30.66;46.35
57628;BME280;43451;49.060;10.616;2023-06-22T11:35:53;96553.25;;;30.45;46.99
57628;BME280;43451;49.060;10.616;2023-06-22T11:38:18;96557.34;;;30.44;47.65
57628;BME280;43451;49.060;10.616;2023-06-22T11:40:44;96538.56;;;30.58;47.38
57628;BME280;43451;49.060;10.616;2023-06-22T11:43:10;96531.88;;;30.80;47.24
57628;BME280;43451;49.060;10.616;2023-06-22T11:45:35;96527.47;;;30.84;45.11
57628;BME280;43451;49.060;10.616;2023-06-22T11:48:01;96531.66;;;30.78;46.57
57628;BME280;43451;49.060;10.616;2023-06-22T11:50:26;96520.56;;;30.85;45.73
57628;BME280;43451;49.060;10.616;2023-06-22T11:52:54;96516.97;;;31.04;45.02
57628;BME280;43451;49.060;10.616;2023-06-22T11:55:19;96507.91;;;31.11;44.35
57628;BME280;43451;49.060;10.616;2023-06-22T11:57:54;96508.91;;;31.13;44.84
57628;BME280;43451;49.060;10.616;2023-06-22T12:00:20;96500.81;;;31.23;44.53
57628;BME280;43451;49.060;10.616;2023-06-22T12:02:48;96505.38;;;31.26;46.45
57628;BME280;43451;49.060;10.616;2023-06-22T12:05:14;96510.66;;;31.30;45.04
57628;BME280;43451;49.060;10.616;2023-06-22T12:07:39;96510.72;;;31.43;45.27
57628;BME280;43451;49.060;10.616;2023-06-22T12:10:05;96505.56;;;31.60;43.75
57628;BME280;43451;49.060;10.616;2023-06-22T12:12:31;96515.81;;;31.71;43.13
57628;BME280;43451;49.060;10.616;2023-06-22T12:14:56;96502.00;;;31.73;43.33
57628;BME280;43451;49.060;10.616;2023-06-22T12:17:22;96499.84;;;31.79;45.16
57628;BME280;43451;49.060;10.616;2023-06-22T12:19:47;96493.56;;;31.73;43.01
57628;BME280;43451;49.060;10.616;2023-06-22T12:22:13;96490.13;;;31.94;43.99
57628;BME280;43451;49.060;10.616;2023-06-22T12:24:38;96489.78;;;32.10;41.99
57628;BME280;43451;49.060;10.616;2023-06-22T12:27:04;96495.59;;;32.26;43.87
57628;BME280;43451;49.060;10.616;2023-06-22T12:29:30;96483.84;;;32.14;47.23
57628;BME280;43451;49.060;10.616;2023-06-22T12:31:55;96491.16;;;32.30;43.99
57628;BME280;43451;49.060;10.616;2023-06-22T12:34:22;96492.88;;;32.33;43.20
57628;BME280;43451;49.060;10.616;2023-06-22T12:36:48;96485.59;;;32.38;43.03
57628;BME280;43451;49.060;10.616;2023-06-22T12:39:14;96489.91;;;32.52;41.78
57628;BME280;43451;49.060;10.616;2023-06-22T12:41:40;96487.88;;;32.40;42.84
57628;BME280;43451;49.060;10.616;2023-06-22T12:44:05;96484.22;;;32.31;43.01
57628;BME280;43451;49.060;10.616;2023-06-22T12:46:31;96477.13;;;32.17;44.79
57628;BME280;43451;49.060;10.616;2023-06-22T12:49:03;96477.72;;;32.36;43.29
57628;BME280;43451;49.060;10.616;2023-06-22T12:51:29;96477.53;;;32.21;46.51
57628;BME280;43451;49.060;10.616;2023-06-22T12:53:55;96482.88;;;31.98;46.75
57628;BME280;43451;49.060;10.616;2023-06-22T12:56:21;96482.13;;;31.84;46.59
57628;BME280;43451;49.060;10.616;2023-06-22T12:58:46;96490.19;;;31.61;46.47
57628;BME280;43451;49.060;10.616;2023-06-22T13:01:12;96484.81;;;31.50;50.63
57628;BME280;43451;49.060;10.616;2023-06-22T13:03:38;96486.63;;;31.34;52.22
57628;BME280;43451;49.060;10.616;2023-06-22T13:06:03;96483.50;;;31.64;48.74